Time;durP1;ratioP1;P1;durP2;ratioP2;P2;SDS_P1;SDS_P2;PMS_P1;PMS_P2;Temp;Humidity;BMP_temperature;BMP_pressure;BME280_temperature;BME280_humidity;BME280_pressure;Samples;Min_cycle;Max_cycle;Signal;HPM_P1;HPM_P2
2022/01/10 00:00:22;;;;;;;;;0.00;0.00;;;;;13.43;81.67;100425.13;5096657;27;45498;-74
2022/01/10 00:02:50;;;;;;;;;1.00;0.00;;;;;13.38;82.48;100414.56;5096431;27;46259;-74
2022/01/10 00:05:16;;;;;;;;;1.00;0.00;;;;;13.40;82.46;100425.97;5095104;27;45551;-74
2022/01/10 00:07:42;;;;;;;;;0.00;0.00;;;;;13.37;82.57;100414.53;5109749;27;45535;-74
2022/01/10 00:10:09;;;;;;;;;1.33;0.00;;;;;13.34;82.13;100415.38;5097013;27;45336;-73
2022/01/10 00:12:34;;;;;;;;;1.00;0.00;;;;;13.37;82.33;100428.56;5096532;27;45440;-74
2022/01/10 00:15:00;;;;;;;;;1.00;0.00;;;;;13.28;82.87;100415.25;5096670;27;45419;-74
2022/01/10 00:17:26;;;;;;;;;1.67;0.00;;;;;13.32;82.65;100433.72;5096944;27;45437;-73
2022/01/10 00:19:51;;;;;;;;;1.00;0.00;;;;;13.22;83.02;100413.41;5096565;27;45507;-74
2022/01/10 00:22:18;;;;;;;;;0.00;0.00;;;;;13.20;83.49;100430.84;5096478;27;45355;-73
2022/01/10 00:24:44;;;;;;;;;0.00;0.00;;;;;13.24;82.91;100435.28;5093794;27;45401;-74
2022/01/10 00:27:10;;;;;;;;;1.00;0.00;;;;;13.29;82.85;100449.41;5096387;27;45471;-74
2022/01/10 00:29:36;;;;;;;;;0.00;0.00;;;;;13.30;82.54;100456.41;5096686;27;45508;-74
2022/01/10 00:32:02;;;;;;;;;0.33;0.00;;;;;13.27;83.22;100455.44;5096175;27;45487;-73
2022/01/10 00:34:28;;;;;;;;;0.00;0.00;;;;;13.30;82.27;100445.03;5096771;27;45549;-74
2022/01/10 00:36:53;;;;;;;;;1.00;0.00;;;;;13.27;82.88;100434.44;5096422;27;45597;-73
2022/01/10 00:39:20;;;;;;;;;0.00;0.00;;;;;13.25;82.86;100436.16;5096422;27;45589;-73
2022/01/10 00:41:46;;;;;;;;;0.33;0.00;;;;;13.23;82.77;100425.69;5094917;27;45540;-74
2022/01/10 00:44:13;;;;;;;;;0.00;0.00;;;;;13.29;82.01;100417.94;5096051;27;45499;-74
2022/01/10 00:46:39;;;;;;;;;0.00;0.00;;;;;13.32;82.69;100423.22;5096131;27;45438;-74
2022/01/10 00:49:05;;;;;;;;;0.00;0.00;;;;;13.28;82.47;100437.09;5096270;27;45508;-74
2022/01/10 00:51:30;;;;;;;;;0.00;0.00;;;;;13.32;82.56;100432.84;5096508;27;45961;-75
2022/01/10 00:53:57;;;;;;;;;0.00;0.00;;;;;13.31;82.34;100431.09;5096392;27;45483;-74
2022/01/10 00:56:24;;;;;;;;;0.00;0.00;;;;;13.32;82.38;100444.22;5096169;27;45324;-74
2022/01/10 00:58:50;;;;;;;;;0.00;0.00;;;;;13.35;82.29;100443.41;5096363;27;45270;-73
2022/01/10 01:01:17;;;;;;;;;0.00;0.00;;;;;13.29;82.33;100424.88;5095793;27;46181;-74
2022/01/10 01:03:43;;;;;;;;;0.00;0.00;;;;;13.32;82.95;100454.69;5092984;27;45356;-74
2022/01/10 01:06:11;;;;;;;;;0.00;0.00;;;;;13.22;82.59;100428.25;5095880;27;45387;-73
2022/01/10 01:08:36;;;;;;;;;0.00;0.00;;;;;13.19;82.64;100436.06;5096161;27;45254;-73
2022/01/10 01:16:15;;;;;;;;;1.00;0.00;;;;;13.18;83.32;100468.41;5095595;27;45469;-74
2022/01/10 01:24:03;;;;;;;;;0.00;0.00;;;;;13.16;82.92;100447.38;5095472;27;45559;-73
2022/01/10 01:26:36;;;;;;;;;0.00;0.00;;;;;13.19;83.67;100457.94;5096173;27;45419;-73
2022/01/10 01:29:03;;;;;;;;;0.67;0.00;;;;;13.19;82.89;100464.91;5095918;27;45569;-74
2022/01/10 01:31:29;;;;;;;;;1.33;0.00;;;;;13.20;83.23;100477.19;5094965;27;46311;-74
2022/01/10 01:33:54;;;;;;;;;0.00;0.00;;;;;13.21;83.01;100482.47;5097823;27;45460;-74
2022/01/10 01:36:23;;;;;;;;;1.00;0.00;;;;;13.11;83.17;100463.06;5099259;27;45524;-73
2022/01/10 01:38:50;;;;;;;;;1.33;0.00;;;;;13.20;83.08;100488.56;5099474;27;45469;-74
2022/01/10 01:43:42;;;;;;;;;0.00;0.00;;;;;13.12;83.30;100463.94;5098776;27;45498;-73
2022/01/10 01:46:08;;;;;;;;;2.00;0.00;;;;;13.21;83.47;100497.31;5098955;27;45396;-73
2022/01/10 01:48:34;;;;;;;;;0.00;0.00;;;;;13.15;83.02;100479.75;5099094;27;45411;-74
2022/01/10 01:51:01;;;;;;;;;0.00;0.00;;;;;13.21;82.96;100508.69;5099165;27;46502;-74
2022/01/10 01:53:27;;;;;;;;;0.00;0.00;;;;;13.20;83.08;100506.03;5099184;27;45345;-73
2022/01/10 01:55:52;;;;;;;;;1.00;0.00;;;;;13.19;82.90;100484.19;5098624;27;45608;-74
2022/01/10 01:58:18;;;;;;;;;0.67;0.00;;;;;13.18;83.44;100500.75;5098729;27;45488;-73
2022/01/10 02:00:43;;;;;;;;;2.00;1.00;;;;;13.18;83.51;100492.00;5095815;27;46120;-74
2022/01/10 02:03:09;;;;;;;;;2.00;0.00;;;;;13.17;83.40;100500.72;5098700;27;45473;-73
2022/01/10 02:05:35;;;;;;;;;1.00;0.00;;;;;13.18;82.87;100498.13;5097334;27;45582;-74
2022/01/10 02:08:00;;;;;;;;;2.00;1.00;;;;;13.11;83.50;100483.13;5099075;27;45544;-73
2022/01/10 02:10:26;;;;;;;;;3.00;1.00;;;;;13.13;83.42;100500.69;5096968;27;46553;-74
2022/01/10 02:12:52;;;;;;;;;2.00;1.67;;;;;13.13;83.04;100505.94;5098502;27;45534;-74
2022/01/10 02:15:31;;;;;;;;;2.00;0.67;;;;;13.08;83.52;100507.56;5098583;27;45385;-74
2022/01/10 02:17:59;;;;;;;;;0.00;0.00;;;;;13.09;84.00;100522.47;5098031;27;45333;-73
2022/01/10 02:20:29;;;;;;;;;0.00;0.00;;;;;13.16;83.70;100535.69;5098220;27;45544;-74
2022/01/10 02:22:54;;;;;;;;;2.00;1.33;;;;;13.10;83.27;100531.22;5098412;27;46182;-74
2022/01/10 02:25:20;;;;;;;;;0.00;0.00;;;;;13.12;83.45;100532.13;5098097;27;45471;-73
2022/01/10 02:27:47;;;;;;;;;2.00;0.00;;;;;13.08;82.97;100525.06;5098574;27;45482;-74
2022/01/10 02:30:13;;;;;;;;;2.33;1.33;;;;;13.00;83.97;100516.16;5102027;27;45593;-74
2022/01/10 02:32:38;;;;;;;;;2.67;2.00;;;;;12.97;83.84;100521.31;5113019;27;45709;-74
2022/01/10 02:35:04;;;;;;;;;1.00;1.00;;;;;13.07;83.35;100536.38;5113272;27;45532;-75
2022/01/10 02:37:34;;;;;;;;;2.00;1.00;;;;;13.07;83.46;100542.53;5116996;27;45505;-74
2022/01/10 02:40:05;;;;;;;;;3.67;2.67;;;;;13.08;83.80;100553.91;5116311;27;45219;-75
2022/01/10 02:42:32;;;;;;;;;2.00;1.00;;;;;13.06;83.58;100547.75;5115494;27;45361;-76
2022/01/10 02:44:58;;;;;;;;;5.00;1.67;;;;;13.09;83.31;100545.16;5104437;27;45451;-74
2022/01/10 02:47:27;;;;;;;;;3.00;2.00;;;;;13.09;83.14;100550.41;5100050;27;45380;-74
2022/01/10 02:49:53;;;;;;;;;2.00;1.00;;;;;13.10;83.42;100554.81;5099583;27;46251;-74
2022/01/10 02:52:19;;;;;;;;;3.00;0.33;;;;;13.08;83.74;100549.53;5099516;27;45522;-74
2022/01/10 02:54:44;;;;;;;;;2.33;0.00;;;;;13.11;83.53;100548.69;5099502;27;45258;-74
2022/01/10 02:57:10;;;;;;;;;1.33;0.00;;;;;13.05;83.47;100544.25;5100027;27;45438;-74
2022/01/10 02:59:37;;;;;;;;;0.00;0.00;;;;;13.03;83.54;100548.56;5099352;27;45450;-74
2022/01/10 03:02:03;;;;;;;;;3.33;0.67;;;;;13.04;83.09;100555.56;5099430;27;45276;-73
2022/01/10 03:04:28;;;;;;;;;1.00;0.00;;;;;12.99;83.40;100532.72;5099568;27;45387;-74
2022/01/10 03:06:54;;;;;;;;;0.67;0.00;;;;;13.08;83.60;100553.91;5099441;27;45352;-74
2022/01/10 03:09:20;;;;;;;;;0.33;0.00;;;;;13.09;83.48;100566.16;5099233;27;45408;-74
2022/01/10 03:11:47;;;;;;;;;0.00;0.00;;;;;13.05;83.39;100543.34;5099257;27;45487;-74
2022/01/10 03:14:13;;;;;;;;;0.00;0.00;;;;;13.09;83.27;100555.66;5099401;27;45451;-74
2022/01/10 03:16:39;;;;;;;;;1.00;1.00;;;;;13.09;82.94;100555.66;5099505;27;45353;-74
2022/01/10 03:19:05;;;;;;;;;0.00;0.00;;;;;13.07;83.36;100546.88;5099248;27;45295;-75
2022/01/10 03:21:30;;;;;;;;;0.67;0.00;;;;;13.10;83.24;100547.81;5099144;27;45491;-74
2022/01/10 03:23:56;;;;;;;;;0.00;0.00;;;;;13.06;82.67;100559.09;5097737;27;45365;-74
2022/01/10 03:26:21;;;;;;;;;0.00;0.00;;;;;13.06;83.39;100560.84;5097769;27;45380;-74
2022/01/10 03:28:47;;;;;;;;;0.33;0.33;;;;;13.04;82.93;100557.31;5097404;27;45440;-74
2022/01/10 03:31:13;;;;;;;;;1.00;0.00;;;;;13.01;83.12;100557.25;5099065;27;45319;-74
2022/01/10 03:33:38;;;;;;;;;0.00;0.00;;;;;13.11;82.87;100586.31;5099211;27;45572;-74
2022/01/10 03:36:04;;;;;;;;;1.00;0.00;;;;;13.09;82.94;100574.91;5098136;27;45494;-74
2022/01/10 03:38:30;;;;;;;;;0.67;0.00;;;;;13.11;83.00;100585.41;5097744;27;46473;-75
2022/01/10 03:40:56;;;;;;;;;1.00;1.00;;;;;13.08;82.72;100580.13;5098653;27;45456;-74
2022/01/10 03:43:21;;;;;;;;;1.33;1.00;;;;;12.96;82.70;100561.53;5098737;27;45288;-75
2022/01/10 03:45:47;;;;;;;;;2.00;1.00;;;;;13.01;82.73;100566.03;5098809;27;45391;-74
2022/01/10 03:48:12;;;;;;;;;1.00;1.00;;;;;13.00;82.59;100571.22;5098522;27;45585;-74
2022/01/10 03:50:38;;;;;;;;;2.33;1.00;;;;;13.01;83.17;100586.09;5098623;27;45465;-74
2022/01/10 03:53:04;;;;;;;;;1.33;0.00;;;;;13.05;82.92;100595.78;5098990;27;45428;-74
2022/01/10 03:55:30;;;;;;;;;1.00;0.00;;;;;13.03;83.15;100600.13;5098041;27;45463;-74
2022/01/10 03:57:56;;;;;;;;;0.00;0.00;;;;;12.98;82.97;100593.91;5098355;27;45416;-74
2022/01/10 04:00:21;;;;;;;;;0.33;0.00;;;;;12.96;83.15;100598.25;5098310;27;45443;-73
2022/01/10 04:02:55;;;;;;;;;0.00;0.00;;;;;12.91;83.00;100571.91;5097085;27;45279;-73
2022/01/10 04:05:21;;;;;;;;;1.00;0.00;;;;;12.99;82.71;100593.94;5098572;27;45479;-74
2022/01/10 04:07:46;;;;;;;;;0.00;0.00;;;;;12.91;82.88;100588.53;5096891;27;45337;-74
2022/01/10 04:10:12;;;;;;;;;0.00;0.00;;;;;12.90;82.78;100585.88;5098202;27;45372;-75
2022/01/10 04:12:37;;;;;;;;;0.00;0.00;;;;;12.96;82.88;100596.50;5097025;27;45848;-74
2022/01/10 04:15:04;;;;;;;;;0.00;0.00;;;;;12.94;82.94;100595.56;5098934;27;45256;-74
2022/01/10 04:17:29;;;;;;;;;0.00;0.00;;;;;12.93;83.31;100610.44;5096922;27;46574;-74
2022/01/10 04:19:55;;;;;;;;;0.00;0.00;;;;;12.93;83.27;100599.94;5098125;27;45408;-74
2022/01/10 04:22:21;;;;;;;;;0.33;0.00;;;;;12.85;83.22;100603.22;5098118;27;45370;-74
2022/01/10 04:24:47;;;;;;;;;0.67;0.00;;;;;12.83;83.14;100599.69;5096966;27;45547;-74
2022/01/10 04:27:12;;;;;;;;;2.00;0.00;;;;;12.84;83.17;100604.97;5098012;27;46122;-74
2022/01/10 04:29:38;;;;;;;;;1.67;0.00;;;;;12.85;83.33;100606.75;5098055;27;45341;-75
2022/01/10 04:32:04;;;;;;;;;0.00;0.00;;;;;12.79;83.24;100584.75;5098419;27;45467;-74
2022/01/10 04:34:30;;;;;;;;;2.00;0.00;;;;;12.88;82.88;100596.31;5097160;27;45547;-74
2022/01/10 04:36:55;;;;;;;;;0.00;0.00;;;;;12.90;82.77;100596.38;5098162;27;45402;-74
2022/01/10 04:39:21;;;;;;;;;0.00;0.00;;;;;12.91;83.21;100599.03;5096645;27;45439;-73
2022/01/10 04:41:47;;;;;;;;;0.00;0.00;;;;;12.90;82.85;100591.13;5098043;27;45425;-75
2022/01/10 04:44:12;;;;;;;;;0.00;0.00;;;;;12.84;82.51;100573.53;5098192;27;45549;-74
2022/01/10 04:46:38;;;;;;;;;0.00;0.00;;;;;12.92;82.91;100597.28;5097954;27;46124;-74
2022/01/10 04:49:04;;;;;;;;;1.00;0.00;;;;;12.93;82.76;100597.31;5113640;27;45459;-74
2022/01/10 04:51:31;;;;;;;;;0.00;0.00;;;;;12.98;82.35;100593.91;5096572;27;45476;-75
2022/01/10 04:53:57;;;;;;;;;0.00;0.00;;;;;12.98;82.89;100591.28;5097876;27;45302;-74
2022/01/10 04:56:23;;;;;;;;;0.00;0.00;;;;;13.00;83.06;100592.19;5097323;27;45435;-75
2022/01/10 04:58:50;;;;;;;;;0.00;0.00;;;;;13.03;82.48;100587.00;5097456;27;45519;-74
2022/01/10 05:01:17;;;;;;;;;0.00;0.00;;;;;13.02;82.42;100585.25;5097914;27;45483;-74
2022/01/10 05:03:43;;;;;;;;;1.00;0.00;;;;;12.93;82.42;100570.19;5096541;27;45393;-74
2022/01/10 05:06:08;;;;;;;;;1.33;1.00;;;;;12.95;82.65;100594.69;5097895;27;46057;-74
2022/01/10 05:08:35;;;;;;;;;0.00;0.00;;;;;12.95;82.64;100589.47;5101216;27;45317;-74
2022/01/10 05:11:00;;;;;;;;;0.00;0.00;;;;;12.88;83.20;100587.59;5101258;27;45253;-73
2022/01/10 05:13:27;;;;;;;;;1.33;0.67;;;;;12.84;82.87;100586.63;5101116;27;45510;-74
2022/01/10 05:15:53;;;;;;;;;1.00;0.00;;;;;12.81;82.30;100580.44;5099842;27;45413;-74
2022/01/10 05:18:20;;;;;;;;;3.00;0.67;;;;;12.81;82.64;100591.81;5101061;27;45431;-74
2022/01/10 05:20:47;;;;;;;;;0.67;0.00;;;;;12.91;82.63;100613.84;5101181;27;45377;-74
2022/01/10 05:23:14;;;;;;;;;0.00;0.00;;;;;12.91;82.37;100605.97;5101218;27;45300;-75
2022/01/10 05:25:40;;;;;;;;;0.00;0.00;;;;;12.79;82.43;100598.72;5101080;27;46087;-73
2022/01/10 05:28:11;;;;;;;;;0.00;0.00;;;;;12.81;82.19;100586.59;5100890;27;45575;-73
2022/01/10 05:30:38;;;;;;;;;2.00;0.00;;;;;12.85;82.96;100609.38;5101288;27;45854;-74
2022/01/10 05:33:05;;;;;;;;;0.00;0.00;;;;;12.78;83.12;100593.50;5101027;27;45248;-74
2022/01/10 05:35:31;;;;;;;;;0.00;0.00;;;;;12.78;83.04;100606.59;5100416;27;46216;-74
2022/01/10 05:37:56;;;;;;;;;0.00;0.00;;;;;12.86;82.43;100603.28;5100516;27;45403;-73
2022/01/10 05:40:22;;;;;;;;;0.00;0.00;;;;;12.88;82.89;100614.69;5100876;27;45299;-74
2022/01/10 05:42:48;;;;;;;;;1.00;0.00;;;;;12.90;83.03;100628.72;5101114;27;45284;-74
2022/01/10 05:45:13;;;;;;;;;0.00;0.00;;;;;12.86;82.65;100620.75;5100508;27;45955;-74
2022/01/10 05:47:42;;;;;;;;;0.00;0.00;;;;;12.86;82.38;100619.00;5101095;27;45161;-74
2022/01/10 05:50:10;;;;;;;;;0.00;0.00;;;;;12.89;82.57;100628.66;5099856;27;45385;-74
2022/01/10 05:52:36;;;;;;;;;0.00;0.00;;;;;12.93;82.63;100628.78;5100631;27;45363;-74
2022/01/10 05:55:03;;;;;;;;;0.00;0.00;;;;;12.93;82.33;100635.75;5100226;27;45376;-74
2022/01/10 05:57:29;;;;;;;;;0.00;0.00;;;;;12.96;82.21;100638.44;5100401;27;45291;-73
2022/01/10 05:59:54;;;;;;;;;0.00;0.00;;;;;12.93;82.25;100639.28;5100458;27;45235;-74
2022/01/10 06:02:20;;;;;;;;;0.00;0.00;;;;;12.95;82.23;100641.91;5100756;27;45433;-75
2022/01/10 06:04:45;;;;;;;;;0.00;0.00;;;;;12.91;82.11;100638.34;5098794;27;47798;-74
2022/01/10 06:07:12;;;;;;;;;0.00;0.00;;;;;12.89;82.30;100647.94;5100826;27;45322;-74
2022/01/10 06:09:38;;;;;;;;;0.00;0.00;;;;;12.95;82.24;100660.25;5100532;27;45372;-74
2022/01/10 06:12:04;;;;;;;;;0.00;0.00;;;;;12.86;82.16;100634.72;5100480;27;45865;-74
2022/01/10 06:14:30;;;;;;;;;0.00;0.00;;;;;12.90;82.37;100633.94;5098670;27;45624;-74
2022/01/10 06:16:55;;;;;;;;;0.00;0.00;;;;;12.83;82.37;100634.69;5098576;27;45476;-74
2022/01/10 06:19:21;;;;;;;;;0.00;0.00;;;;;12.90;81.98;100639.19;5099917;27;45444;-74
2022/01/10 06:21:46;;;;;;;;;1.33;0.00;;;;;12.82;82.54;100640.75;5100430;27;45425;-74
2022/01/10 06:24:12;;;;;;;;;0.00;0.00;;;;;12.86;82.34;100653.09;5100260;27;46113;-74
2022/01/10 06:26:38;;;;;;;;;0.00;0.00;;;;;12.81;82.58;100636.38;5115841;27;45565;-74
2022/01/10 06:29:03;;;;;;;;;0.00;0.00;;;;;12.89;82.09;100642.69;5100125;27;45501;-74
2022/01/10 06:31:29;;;;;;;;;0.00;0.00;;;;;12.79;82.46;100645.91;5100274;27;46112;-74
2022/01/10 06:33:55;;;;;;;;;0.00;0.00;;;;;12.85;82.43;100646.09;5099762;27;45468;-74
2022/01/10 06:36:20;;;;;;;;;0.00;0.00;;;;;12.85;82.71;100656.56;5098243;27;45688;-74
2022/01/10 06:38:46;;;;;;;;;0.67;0.00;;;;;12.85;82.79;100659.19;5100695;27;45377;-75
2022/01/10 06:41:11;;;;;;;;;1.00;0.00;;;;;12.80;82.27;100646.84;5098785;27;45367;-74
2022/01/10 06:43:39;;;;;;;;;0.00;0.00;;;;;12.86;82.31;100652.22;5099642;27;45394;-74
2022/01/10 06:46:05;;;;;;;;;0.00;0.00;;;;;12.85;82.39;100672.31;5099657;27;45534;-74
2022/01/10 06:48:31;;;;;;;;;0.00;0.00;;;;;12.83;82.74;100660.00;5099760;27;45558;-74
2022/01/10 06:50:57;;;;;;;;;0.00;0.00;;;;;12.85;82.71;100666.16;5099782;27;45527;-74
2022/01/10 06:53:23;;;;;;;;;0.00;0.00;;;;;12.83;82.71;100679.25;5097937;27;47590;-74
2022/01/10 06:55:49;;;;;;;;;0.00;0.00;;;;;12.74;83.04;100679.91;5099303;27;45495;-75
2022/01/10 06:58:14;;;;;;;;;0.67;0.00;;;;;12.67;83.45;100667.53;5098544;27;45328;-74
2022/01/10 07:00:41;;;;;;;;;1.00;0.00;;;;;12.77;83.37;100680.81;5099625;27;45270;-74
2022/01/10 07:03:06;;;;;;;;;0.00;0.00;;;;;12.73;82.43;100651.94;5099443;27;45253;-74
2022/01/10 07:05:32;;;;;;;;;0.00;0.00;;;;;12.76;82.96;100672.09;5099303;27;45215;-74
2022/01/10 07:07:58;;;;;;;;;0.00;0.00;;;;;12.71;82.52;100673.69;5099654;27;45488;-74
2022/01/10 07:10:23;;;;;;;;;0.00;0.00;;;;;12.78;82.96;100686.13;5098198;27;45519;-74
2022/01/10 07:12:49;;;;;;;;;0.00;0.00;;;;;12.81;82.91;100682.66;5099020;27;45451;-74
2022/01/10 07:15:15;;;;;;;;;0.00;0.00;;;;;12.83;82.67;100689.75;5100536;27;45505;-74
2022/01/10 07:17:41;;;;;;;;;0.00;0.00;;;;;12.76;82.31;100661.59;5099081;27;45423;-74
2022/01/10 07:20:07;;;;;;;;;0.00;0.00;;;;;12.86;82.59;100694.16;5097975;27;45297;-74
2022/01/10 07:22:32;;;;;;;;;0.00;0.00;;;;;12.84;83.08;100681.00;5099069;27;47355;-73
2022/01/10 07:24:58;;;;;;;;;0.00;0.00;;;;;12.73;82.57;100677.25;5098079;27;45416;-74
2022/01/10 07:27:24;;;;;;;;;0.00;0.00;;;;;12.89;82.50;100705.59;5108063;27;45454;-74
2022/01/10 07:29:50;;;;;;;;;0.00;0.00;;;;;12.88;82.27;100709.06;5121332;27;45441;-74
2022/01/10 07:32:17;;;;;;;;;0.00;0.00;;;;;12.84;82.46;100701.97;5103034;27;46199;-75
2022/01/10 07:34:43;;;;;;;;;1.00;1.00;;;;;12.79;82.51;100706.22;5096819;27;45659;-76
2022/01/10 07:37:09;;;;;;;;;4.33;4.33;;;;;12.81;82.46;100711.50;5096782;27;45491;-76
2022/01/10 07:39:35;;;;;;;;;0.00;0.00;;;;;12.74;82.68;100702.63;5099834;27;45555;-78
2022/01/10 07:42:00;;;;;;;;;0.00;0.00;;;;;12.88;82.59;100724.78;5096597;27;45629;-74
2022/01/10 07:44:26;;;;;;;;;0.33;0.00;;;;;12.83;82.24;100715.03;5096541;27;45478;-74
2022/01/10 07:46:51;;;;;;;;;0.00;0.00;;;;;12.82;82.50;100716.78;5097168;27;45325;-75
2022/01/10 07:49:17;;;;;;;;;0.00;0.00;;;;;12.82;82.95;100737.75;5097579;27;45538;-75
2022/01/10 07:51:42;;;;;;;;;0.00;0.00;;;;;12.83;82.74;100741.25;5098023;27;45463;-75
2022/01/10 07:54:08;;;;;;;;;2.00;2.00;;;;;12.81;83.37;100742.97;5098444;27;45322;-75
2022/01/10 07:56:33;;;;;;;;;0.00;0.00;;;;;12.88;82.98;100758.00;5097328;27;46119;-75
2022/01/10 07:58:59;;;;;;;;;0.00;0.00;;;;;12.78;82.96;100740.28;5097225;27;45311;-75
2022/01/10 08:01:25;;;;;;;;;0.00;0.00;;;;;12.89;82.54;100746.66;5096432;27;45939;-76
2022/01/10 08:03:52;;;;;;;;;0.67;0.00;;;;;12.87;82.99;100762.38;5096493;27;45411;-74
2022/01/10 08:06:22;;;;;;;;;1.00;0.00;;;;;12.91;82.27;100761.59;5092023;27;45383;-72
2022/01/10 08:08:48;;;;;;;;;1.33;1.00;;;;;12.85;82.42;100750.06;5093521;27;46014;-72
2022/01/10 08:11:15;;;;;;;;;0.00;0.00;;;;;12.91;82.47;100781.66;5095707;27;46130;-72
2022/01/10 08:13:42;;;;;;;;;1.00;1.00;;;;;12.95;82.02;100775.63;5094676;27;45735;-71
2022/01/10 08:16:08;;;;;;;;;0.00;0.00;;;;;12.92;82.00;100784.31;5095173;27;45298;-71
2022/01/10 08:18:35;;;;;;;;;1.00;0.00;;;;;12.86;82.25;100767.56;5095910;27;45591;-72
2022/01/10 08:21:02;;;;;;;;;0.00;0.00;;;;;12.96;81.68;100785.28;5093370;27;45490;-72
2022/01/10 08:23:29;;;;;;;;;0.00;0.00;;;;;12.86;82.05;100765.81;5093611;27;45530;-72
2022/01/10 08:25:55;;;;;;;;;0.00;0.00;;;;;12.95;82.03;100778.25;5095307;27;45364;-72
2022/01/10 08:28:22;;;;;;;;;0.00;0.00;;;;;12.98;81.86;100795.81;5095704;27;45755;-72
2022/01/10 08:30:48;;;;;;;;;0.00;0.00;;;;;12.96;81.96;100792.28;5094027;27;45728;-72
2022/01/10 08:33:13;;;;;;;;;0.00;0.00;;;;;12.90;81.77;100780.78;5095774;27;45344;-75
2022/01/10 08:35:39;;;;;;;;;0.00;0.00;;;;;12.93;82.42;100788.72;5093290;27;45461;-77
2022/01/10 08:38:04;;;;;;;;;0.00;0.00;;;;;12.96;81.83;100803.66;5112947;27;45476;-75
2022/01/10 08:40:30;;;;;;;;;0.00;0.00;;;;;12.90;81.52;100790.38;5097200;27;46343;-75
2022/01/10 08:42:56;;;;;;;;;4.00;4.00;;;;;12.96;81.89;100805.38;5097066;27;45493;-75
2022/01/10 08:45:22;;;;;;;;;1.00;1.00;;;;;12.99;81.67;100808.06;5096486;27;45605;-75
2022/01/10 08:47:48;;;;;;;;;1.00;1.00;;;;;12.98;81.71;100814.19;5098270;27;45427;-75
2022/01/10 08:50:14;;;;;;;;;5.00;3.00;;;;;12.88;81.56;100795.59;5098099;27;45520;-77
2022/01/10 08:52:40;;;;;;;;;3.00;2.00;;;;;12.98;81.84;100824.66;5097934;27;45496;-74
2022/01/10 08:55:08;;;;;;;;;7.33;6.00;;;;;12.90;81.80;100793.88;5097728;27;45384;-74
2022/01/10 08:57:34;;;;;;;;;0.00;0.00;;;;;13.01;81.66;100819.47;5097974;27;45309;-74
2022/01/10 09:00:00;;;;;;;;;0.00;0.00;;;;;12.96;81.62;100829.88;5097620;27;45581;-75
2022/01/10 09:02:26;;;;;;;;;0.00;0.00;;;;;12.89;81.63;100820.06;5097552;27;45526;-75
2022/01/10 09:04:52;;;;;;;;;1.00;0.00;;;;;12.91;81.80;100819.28;5097652;27;45353;-74
2022/01/10 09:07:18;;;;;;;;;0.00;0.00;;;;;13.02;81.18;100832.63;5097860;27;45450;-74
2022/01/10 09:09:44;;;;;;;;;1.67;1.00;;;;;12.97;81.29;100825.50;5097190;27;46145;-75
2022/01/10 09:12:11;;;;;;;;;0.00;0.00;;;;;13.03;81.99;100844.00;5097745;27;45349;-75
2022/01/10 09:14:36;;;;;;;;;1.00;1.00;;;;;13.06;81.93;100842.34;5097686;27;45380;-75
2022/01/10 09:17:03;;;;;;;;;0.00;0.00;;;;;13.02;81.56;100830.00;5097607;27;45476;-74
2022/01/10 09:19:29;;;;;;;;;1.00;0.00;;;;;13.03;81.67;100842.28;5097308;27;45539;-75
2022/01/10 09:21:55;;;;;;;;;0.00;0.00;;;;;13.01;81.11;100829.97;5097320;27;45391;-75
2022/01/10 09:24:21;;;;;;;;;0.00;0.00;;;;;13.09;81.20;100844.16;5097836;27;45478;-74
2022/01/10 09:26:46;;;;;;;;;1.00;1.00;;;;;13.07;81.25;100845.84;5096720;27;45456;-75
2022/01/10 09:29:12;;;;;;;;;0.00;0.00;;;;;13.01;81.27;100837.84;5097020;27;45960;-75
2022/01/10 09:31:38;;;;;;;;;0.33;0.00;;;;;13.05;81.13;100848.47;5097283;27;45242;-74
2022/01/10 09:34:03;;;;;;;;;0.00;0.00;;;;;13.09;81.08;100854.66;5113246;27;45283;-75
2022/01/10 09:36:31;;;;;;;;;0.00;0.00;;;;;13.09;81.29;100846.78;5097647;27;45295;-75
2022/01/10 09:38:58;;;;;;;;;0.00;0.00;;;;;13.08;80.82;100845.03;5095670;27;45509;-75
2022/01/10 09:41:24;;;;;;;;;1.00;0.00;;;;;13.13;81.16;100856.53;5097011;27;45551;-75
2022/01/10 09:43:56;;;;;;;;;0.00;0.00;;;;;13.13;80.87;100859.16;5096284;27;45337;-75
2022/01/10 09:46:24;;;;;;;;;0.00;0.00;;;;;13.10;80.99;100862.56;5097596;27;45310;-74
2022/01/10 09:48:50;;;;;;;;;0.00;0.00;;;;;13.02;80.85;100843.13;5097259;27;46063;-75
2022/01/10 09:51:16;;;;;;;;;1.00;0.00;;;;;13.10;81.11;100857.31;5097167;27;45462;-75
2022/01/10 09:53:42;;;;;;;;;0.00;0.00;;;;;13.10;80.61;100848.56;5098269;27;45222;-75
2022/01/10 09:56:08;;;;;;;;;0.00;0.00;;;;;13.11;80.78;100861.72;5100660;27;45330;-75
2022/01/10 09:58:34;;;;;;;;;0.00;0.00;;;;;13.11;80.39;100863.44;5100347;27;46162;-74
2022/01/10 10:01:01;;;;;;;;;0.00;0.00;;;;;13.08;80.72;100863.38;5099105;27;45404;-75
2022/01/10 10:03:27;;;;;;;;;0.00;0.00;;;;;13.13;80.46;100877.50;5100955;27;45337;-75
2022/01/10 10:05:57;;;;;;;;;0.00;0.00;;;;;13.08;80.44;100885.25;5100994;27;45563;-75
2022/01/10 10:08:24;;;;;;;;;0.00;0.00;;;;;13.11;80.70;100889.66;5100508;27;45440;-75
2022/01/10 10:10:51;;;;;;;;;0.00;0.00;;;;;13.12;80.75;100888.84;5100473;27;45169;-75
2022/01/10 10:13:17;;;;;;;;;0.00;0.00;;;;;13.13;80.42;100899.38;5100334;27;45289;-75
2022/01/10 10:15:45;;;;;;;;;0.00;0.00;;;;;13.16;80.23;100913.41;5100629;27;45461;-75
2022/01/10 10:18:16;;;;;;;;;0.00;0.00;;;;;13.11;80.08;100902.78;5099986;27;45477;-75
2022/01/10 10:20:44;;;;;;;;;0.00;0.00;;;;;13.08;79.96;100905.34;5100131;27;45284;-75
2022/01/10 10:23:14;;;;;;;;;1.00;0.00;;;;;13.13;80.10;100902.00;5100255;27;45235;-75
2022/01/10 10:26:05;;;;;;;;;0.00;0.00;;;;;13.18;79.82;100903.84;5100292;27;45299;-75
2022/01/10 10:28:35;;;;;;;;;1.00;0.00;;;;;13.18;80.31;100901.22;5095913;27;46242;-74
2022/01/10 10:31:02;;;;;;;;;2.00;0.00;;;;;13.17;80.23;100889.84;5099742;27;45475;-75
2022/01/10 10:33:27;;;;;;;;;1.00;0.00;;;;;13.13;80.17;100894.13;5099902;27;45202;-75
2022/01/10 10:36:07;;;;;;;;;2.00;1.00;;;;;13.14;80.33;100914.25;5098815;27;45312;-75
2022/01/10 10:38:32;;;;;;;;;2.33;1.00;;;;;13.07;80.41;100899.22;5099863;27;45511;-75
2022/01/10 10:41:03;;;;;;;;;1.00;0.00;;;;;13.18;80.23;100915.22;5098349;27;45451;-75
2022/01/10 10:43:31;;;;;;;;;2.00;0.00;;;;;13.13;79.74;100899.38;5100056;27;45433;-75
2022/01/10 10:46:16;;;;;;;;;1.00;0.00;;;;;13.20;80.13;100904.78;5100021;27;45431;-75
2022/01/10 10:48:44;;;;;;;;;2.00;0.00;;;;;13.22;79.75;100916.19;5099678;27;46234;-75
2022/01/10 10:51:10;;;;;;;;;1.00;1.00;;;;;13.25;79.71;100917.16;5099605;27;45347;-76
2022/01/10 10:53:37;;;;;;;;;0.00;0.00;;;;;13.26;79.31;100921.53;5098549;27;45255;-75
2022/01/10 10:56:05;;;;;;;;;0.00;0.00;;;;;13.22;78.62;100908.31;5099742;27;45494;-75
2022/01/10 10:58:31;;;;;;;;;0.00;0.00;;;;;13.19;78.92;100910.84;5097917;27;45453;-75
2022/01/10 11:00:59;;;;;;;;;0.00;0.00;;;;;13.21;78.53;100902.19;5099363;27;45534;-75
2022/01/10 11:03:25;;;;;;;;;1.00;0.00;;;;;13.17;78.53;100888.94;5099908;27;45442;-74
2022/01/10 11:05:59;;;;;;;;;1.67;0.00;;;;;13.23;78.91;100915.31;5099977;27;45306;-75
2022/01/10 11:08:31;;;;;;;;;1.33;0.00;;;;;13.10;78.96;100895.78;5099380;27;46203;-75
2022/01/10 11:10:59;;;;;;;;;3.00;2.00;;;;;13.14;79.14;100900.25;5099629;27;45372;-74
2022/01/10 11:13:27;;;;;;;;;2.00;0.00;;;;;13.24;78.75;100902.25;5098340;27;45327;-75
2022/01/10 11:15:56;;;;;;;;;0.00;0.00;;;;;13.30;78.82;100907.69;5099993;27;45235;-73
2022/01/10 11:18:22;;;;;;;;;1.33;1.00;;;;;13.26;78.50;100892.69;5097669;27;45376;-76
2022/01/10 11:20:51;;;;;;;;;0.00;0.00;;;;;13.27;78.28;100883.97;5098887;27;45587;-73
2022/01/10 11:23:17;;;;;;;;;0.00;0.00;;;;;13.39;78.25;100903.50;5097934;27;45263;-76
2022/01/10 11:25:43;;;;;;;;;2.00;0.00;;;;;13.40;77.68;100900.91;5099083;27;45551;-76
2022/01/10 11:28:23;;;;;;;;;1.00;0.00;;;;;13.26;77.87;100883.94;5097287;27;45309;-75
2022/01/10 11:30:51;;;;;;;;;0.00;0.00;;;;;13.32;78.61;100900.72;5095564;27;45494;-74
2022/01/10 11:33:29;;;;;;;;;1.00;0.00;;;;;13.37;78.17;100905.19;5097086;27;45471;-74